sensor_id;sensor_type;location;lat;lon;timestamp;P1;durP1;ratioP1;P2;durP2;ratioP2
20073;SDS011;10197;54.282;10.078;2023-08-08T00:02:25;14.00;;;3.80;;
20073;SDS011;10197;54.282;10.078;2023-08-08T00:04:52;12.55;;;3.42;;
20073;SDS011;10197;54.282;10.078;2023-08-08T00:07:19;16.15;;;4.30;;
20073;SDS011;10197;54.282;10.078;2023-08-08T00:09:47;10.75;;;3.75;;
20073;SDS011;10197;54.282;10.078;2023-08-08T00:12:13;13.70;;;4.38;;
20073;SDS011;10197;54.282;10.078;2023-08-08T00:14:40;13.85;;;3.40;;
20073;SDS011;10197;54.282;10.078;2023-08-08T00:17:09;14.90;;;4.40;;
20073;SDS011;10197;54.282;10.078;2023-08-08T00:19:35;14.35;;;3.95;;
20073;SDS011;10197;54.282;10.078;2023-08-08T00:22:03;19.40;;;4.18;;
20073;SDS011;10197;54.282;10.078;2023-08-08T00:24:30;16.08;;;4.65;;
20073;SDS011;10197;54.282;10.078;2023-08-08T00:26:57;18.50;;;4.90;;
20073;SDS011;10197;54.282;10.078;2023-08-08T00:29:23;12.43;;;3.75;;
20073;SDS011;10197;54.282;10.078;2023-08-08T00:31:50;11.65;;;3.33;;
20073;SDS011;10197;54.282;10.078;2023-08-08T00:34:18;12.38;;;4.05;;
20073;SDS011;10197;54.282;10.078;2023-08-08T00:36:45;16.00;;;3.97;;
20073;SDS011;10197;54.282;10.078;2023-08-08T00:39:12;15.75;;;3.72;;
20073;SDS011;10197;54.282;10.078;2023-08-08T00:41:38;19.40;;;4.80;;
20073;SDS011;10197;54.282;10.078;2023-08-08T00:44:05;12.82;;;3.17;;
20073;SDS011;10197;54.282;10.078;2023-08-08T00:46:32;11.82;;;3.72;;
20073;SDS011;10197;54.282;10.078;2023-08-08T00:48:59;11.73;;;3.90;;
20073;SDS011;10197;54.282;10.078;2023-08-08T00:51:28;13.15;;;3.67;;
20073;SDS011;10197;54.282;10.078;2023-08-08T00:53:56;12.68;;;3.55;;
20073;SDS011;10197;54.282;10.078;2023-08-08T00:56:24;19.27;;;4.07;;
20073;SDS011;10197;54.282;10.078;2023-08-08T00:58:51;16.10;;;4.10;;
20073;SDS011;10197;54.282;10.078;2023-08-08T01:01:20;13.60;;;3.60;;
20073;SDS011;10197;54.282;10.078;2023-08-08T01:03:47;13.65;;;3.45;;
20073;SDS011;10197;54.282;10.078;2023-08-08T01:06:21;14.63;;;3.63;;
20073;SDS011;10197;54.282;10.078;2023-08-08T01:08:53;13.38;;;3.80;;
20073;SDS011;10197;54.282;10.078;2023-08-08T01:11:23;15.18;;;3.78;;
20073;SDS011;10197;54.282;10.078;2023-08-08T01:13:52;15.02;;;3.95;;
20073;SDS011;10197;54.282;10.078;2023-08-08T01:16:20;14.77;;;4.07;;
20073;SDS011;10197;54.282;10.078;2023-08-08T01:18:49;18.58;;;3.70;;
20073;SDS011;10197;54.282;10.078;2023-08-08T01:21:18;13.00;;;3.92;;
20073;SDS011;10197;54.282;10.078;2023-08-08T01:23:46;21.90;;;4.35;;
20073;SDS011;10197;54.282;10.078;2023-08-08T01:26:19;13.20;;;3.25;;
20073;SDS011;10197;54.282;10.078;2023-08-08T01:28:47;14.07;;;3.53;;
20073;SDS011;10197;54.282;10.078;2023-08-08T01:31:22;10.27;;;3.45;;
20073;SDS011;10197;54.282;10.078;2023-08-08T01:33:49;15.68;;;4.07;;
20073;SDS011;10197;54.282;10.078;2023-08-08T01:36:19;13.25;;;3.40;;
20073;SDS011;10197;54.282;10.078;2023-08-08T01:38:49;7.15;;;3.28;;
20073;SDS011;10197;54.282;10.078;2023-08-08T01:41:19;9.93;;;3.45;;
20073;SDS011;10197;54.282;10.078;2023-08-08T01:43:46;16.70;;;4.25;;
20073;SDS011;10197;54.282;10.078;2023-08-08T01:46:14;10.10;;;3.33;;
20073;SDS011;10197;54.282;10.078;2023-08-08T01:48:44;15.32;;;3.75;;
20073;SDS011;10197;54.282;10.078;2023-08-08T01:51:11;12.68;;;3.70;;
20073;SDS011;10197;54.282;10.078;2023-08-08T01:53:38;15.45;;;3.40;;
20073;SDS011;10197;54.282;10.078;2023-08-08T01:56:05;17.25;;;4.50;;
20073;SDS011;10197;54.282;10.078;2023-08-08T01:58:34;16.17;;;3.13;;
20073;SDS011;10197;54.282;10.078;2023-08-08T02:01:00;11.18;;;3.53;;
20073;SDS011;10197;54.282;10.078;2023-08-08T02:03:28;13.40;;;3.30;;
20073;SDS011;10197;54.282;10.078;2023-08-08T02:05:54;15.90;;;4.07;;
20073;SDS011;10197;54.282;10.078;2023-08-08T02:08:21;18.15;;;3.88;;
20073;SDS011;10197;54.282;10.078;2023-08-08T02:10:48;16.27;;;3.50;;
20073;SDS011;10197;54.282;10.078;2023-08-08T02:13:15;12.32;;;3.10;;
20073;SDS011;10197;54.282;10.078;2023-08-08T02:15:43;11.85;;;2.92;;
20073;SDS011;10197;54.282;10.078;2023-08-08T02:18:10;9.90;;;3.10;;
20073;SDS011;10197;54.282;10.078;2023-08-08T02:20:37;13.38;;;2.95;;
20073;SDS011;10197;54.282;10.078;2023-08-08T02:23:04;15.95;;;4.00;;
20073;SDS011;10197;54.282;10.078;2023-08-08T02:25:31;12.57;;;3.63;;
20073;SDS011;10197;54.282;10.078;2023-08-08T02:27:57;14.90;;;3.83;;
20073;SDS011;10197;54.282;10.078;2023-08-08T02:30:24;18.58;;;3.53;;
20073;SDS011;10197;54.282;10.078;2023-08-08T02:32:53;15.52;;;3.30;;
20073;SDS011;10197;54.282;10.078;2023-08-08T02:35:19;12.50;;;3.75;;
20073;SDS011;10197;54.282;10.078;2023-08-08T02:37:46;10.43;;;3.15;;
20073;SDS011;10197;54.282;10.078;2023-08-08T02:40:13;11.23;;;3.55;;
20073;SDS011;10197;54.282;10.078;2023-08-08T02:42:40;12.65;;;3.83;;
20073;SDS011;10197;54.282;10.078;2023-08-08T02:45:07;17.25;;;3.80;;
20073;SDS011;10197;54.282;10.078;2023-08-08T02:47:34;12.63;;;3.38;;
20073;SDS011;10197;54.282;10.078;2023-08-08T02:50:04;11.10;;;3.20;;
20073;SDS011;10197;54.282;10.078;2023-08-08T02:52:31;15.68;;;3.15;;
20073;SDS011;10197;54.282;10.078;2023-08-08T02:54:58;11.20;;;3.10;;
20073;SDS011;10197;54.282;10.078;2023-08-08T02:57:27;18.92;;;3.70;;
20073;SDS011;10197;54.282;10.078;2023-08-08T02:59:54;13.43;;;3.05;;
20073;SDS011;10197;54.282;10.078;2023-08-08T03:02:22;11.88;;;3.63;;
20073;SDS011;10197;54.282;10.078;2023-08-08T03:04:50;12.48;;;3.30;;
20073;SDS011;10197;54.282;10.078;2023-08-08T03:07:18;13.73;;;2.67;;
20073;SDS011;10197;54.282;10.078;2023-08-08T03:09:45;10.07;;;2.63;;
20073;SDS011;10197;54.282;10.078;2023-08-08T03:12:12;7.65;;;2.60;;
20073;SDS011;10197;54.282;10.078;2023-08-08T03:14:39;11.98;;;2.67;;
20073;SDS011;10197;54.282;10.078;2023-08-08T03:17:05;14.65;;;2.38;;
20073;SDS011;10197;54.282;10.078;2023-08-08T03:19:32;9.85;;;2.45;;
20073;SDS011;10197;54.282;10.078;2023-08-08T03:22:02;13.32;;;3.00;;
20073;SDS011;10197;54.282;10.078;2023-08-08T03:24:30;10.00;;;2.92;;
20073;SDS011;10197;54.282;10.078;2023-08-08T03:26:57;9.50;;;2.90;;
20073;SDS011;10197;54.282;10.078;2023-08-08T03:29:25;14.27;;;2.80;;
20073;SDS011;10197;54.282;10.078;2023-08-08T03:31:56;10.13;;;3.00;;
20073;SDS011;10197;54.282;10.078;2023-08-08T03:34:26;11.43;;;2.90;;
20073;SDS011;10197;54.282;10.078;2023-08-08T03:36:55;11.00;;;3.00;;
20073;SDS011;10197;54.282;10.078;2023-08-08T03:39:22;8.98;;;2.50;;
20073;SDS011;10197;54.282;10.078;2023-08-08T03:41:50;7.13;;;2.60;;
20073;SDS011;10197;54.282;10.078;2023-08-08T03:44:18;9.68;;;2.60;;
20073;SDS011;10197;54.282;10.078;2023-08-08T03:46:45;5.97;;;2.80;;
20073;SDS011;10197;54.282;10.078;2023-08-08T03:49:15;10.85;;;3.00;;
20073;SDS011;10197;54.282;10.078;2023-08-08T03:51:48;11.45;;;2.90;;
20073;SDS011;10197;54.282;10.078;2023-08-08T03:54:14;8.90;;;2.88;;
20073;SDS011;10197;54.282;10.078;2023-08-08T03:56:43;9.95;;;3.05;;
20073;SDS011;10197;54.282;10.078;2023-08-08T03:59:12;8.98;;;2.88;;
20073;SDS011;10197;54.282;10.078;2023-08-08T04:01:38;10.00;;;3.22;;
20073;SDS011;10197;54.282;10.078;2023-08-08T04:04:05;13.75;;;2.70;;
20073;SDS011;10197;54.282;10.078;2023-08-08T04:06:32;10.30;;;2.80;;
20073;SDS011;10197;54.282;10.078;2023-08-08T04:08:58;13.40;;;3.13;;
20073;SDS011;10197;54.282;10.078;2023-08-08T04:11:26;9.60;;;2.58;;
20073;SDS011;10197;54.282;10.078;2023-08-08T04:13:53;8.93;;;2.85;;
20073;SDS011;10197;54.282;10.078;2023-08-08T04:16:21;12.65;;;3.28;;
20073;SDS011;10197;54.282;10.078;2023-08-08T04:18:48;9.00;;;2.95;;
20073;SDS011;10197;54.282;10.078;2023-08-08T04:21:15;9.65;;;3.05;;
20073;SDS011;10197;54.282;10.078;2023-08-08T04:23:42;11.23;;;3.22;;
20073;SDS011;10197;54.282;10.078;2023-08-08T04:26:09;14.30;;;3.40;;
20073;SDS011;10197;54.282;10.078;2023-08-08T04:28:35;10.30;;;3.05;;
20073;SDS011;10197;54.282;10.078;2023-08-08T04:31:02;13.05;;;3.55;;
20073;SDS011;10197;54.282;10.078;2023-08-08T04:33:30;11.95;;;2.92;;
20073;SDS011;10197;54.282;10.078;2023-08-08T04:35:57;13.20;;;3.58;;
20073;SDS011;10197;54.282;10.078;2023-08-08T04:38:24;10.90;;;2.83;;
20073;SDS011;10197;54.282;10.078;2023-08-08T04:40:51;12.15;;;3.03;;
20073;SDS011;10197;54.282;10.078;2023-08-08T04:43:18;14.50;;;3.20;;
20073;SDS011;10197;54.282;10.078;2023-08-08T04:45:45;8.95;;;2.58;;
20073;SDS011;10197;54.282;10.078;2023-08-08T04:48:12;10.65;;;3.05;;
20073;SDS011;10197;54.282;10.078;2023-08-08T04:50:40;13.38;;;3.22;;
20073;SDS011;10197;54.282;10.078;2023-08-08T04:53:07;9.73;;;2.75;;
20073;SDS011;10197;54.282;10.078;2023-08-08T04:55:34;9.45;;;2.70;;
20073;SDS011;10197;54.282;10.078;2023-08-08T04:58:00;8.80;;;2.60;;
20073;SDS011;10197;54.282;10.078;2023-08-08T05:00:28;10.95;;;2.83;;
20073;SDS011;10197;54.282;10.078;2023-08-08T05:02:54;9.70;;;2.90;;
20073;SDS011;10197;54.282;10.078;2023-08-08T05:05:21;11.13;;;2.40;;
20073;SDS011;10197;54.282;10.078;2023-08-08T05:07:49;12.95;;;2.97;;
20073;SDS011;10197;54.282;10.078;2023-08-08T05:10:16;18.20;;;2.83;;
20073;SDS011;10197;54.282;10.078;2023-08-08T05:12:43;14.55;;;3.28;;
20073;SDS011;10197;54.282;10.078;2023-08-08T05:15:10;15.55;;;3.25;;
20073;SDS011;10197;54.282;10.078;2023-08-08T05:17:38;13.27;;;2.97;;
20073;SDS011;10197;54.282;10.078;2023-08-08T05:20:08;11.40;;;4.07;;
20073;SDS011;10197;54.282;10.078;2023-08-08T05:22:37;14.68;;;3.63;;
20073;SDS011;10197;54.282;10.078;2023-08-08T05:25:10;12.27;;;2.78;;
20073;SDS011;10197;54.282;10.078;2023-08-08T05:27:38;7.50;;;2.95;;
20073;SDS011;10197;54.282;10.078;2023-08-08T05:30:05;11.75;;;3.30;;
20073;SDS011;10197;54.282;10.078;2023-08-08T05:32:33;12.65;;;2.75;;
20073;SDS011;10197;54.282;10.078;2023-08-08T05:35:00;11.57;;;3.17;;
20073;SDS011;10197;54.282;10.078;2023-08-08T05:37:29;9.88;;;3.00;;
20073;SDS011;10197;54.282;10.078;2023-08-08T05:39:56;7.68;;;2.70;;
20073;SDS011;10197;54.282;10.078;2023-08-08T05:42:24;9.57;;;2.45;;
20073;SDS011;10197;54.282;10.078;2023-08-08T05:44:51;8.38;;;3.15;;
20073;SDS011;10197;54.282;10.078;2023-08-08T05:47:17;10.45;;;3.03;;
20073;SDS011;10197;54.282;10.078;2023-08-08T05:49:44;5.43;;;2.40;;
20073;SDS011;10197;54.282;10.078;2023-08-08T05:52:11;7.95;;;3.00;;
20073;SDS011;10197;54.282;10.078;2023-08-08T05:54:37;8.57;;;2.50;;
20073;SDS011;10197;54.282;10.078;2023-08-08T05:57:04;7.65;;;2.47;;
20073;SDS011;10197;54.282;10.078;2023-08-08T05:59:33;10.07;;;2.80;;
20073;SDS011;10197;54.282;10.078;2023-08-08T06:01:59;10.15;;;2.78;;
20073;SDS011;10197;54.282;10.078;2023-08-08T06:04:26;14.05;;;2.80;;
20073;SDS011;10197;54.282;10.078;2023-08-08T06:06:54;8.95;;;2.75;;
20073;SDS011;10197;54.282;10.078;2023-08-08T06:09:21;10.95;;;3.15;;
20073;SDS011;10197;54.282;10.078;2023-08-08T06:11:47;17.95;;;3.65;;
20073;SDS011;10197;54.282;10.078;2023-08-08T06:14:14;7.97;;;3.08;;
20073;SDS011;10197;54.282;10.078;2023-08-08T06:16:43;7.40;;;2.33;;
20073;SDS011;10197;54.282;10.078;2023-08-08T06:19:11;9.23;;;3.15;;
20073;SDS011;10197;54.282;10.078;2023-08-08T06:21:40;9.90;;;3.25;;
20073;SDS011;10197;54.282;10.078;2023-08-08T06:24:07;8.18;;;2.63;;
20073;SDS011;10197;54.282;10.078;2023-08-08T06:26:34;10.50;;;3.15;;
20073;SDS011;10197;54.282;10.078;2023-08-08T06:29:01;12.40;;;3.90;;
20073;SDS011;10197;54.282;10.078;2023-08-08T06:31:29;8.35;;;2.65;;
20073;SDS011;10197;54.282;10.078;2023-08-08T06:33:57;10.18;;;3.10;;
20073;SDS011;10197;54.282;10.078;2023-08-08T06:36:25;11.60;;;2.92;;
20073;SDS011;10197;54.282;10.078;2023-08-08T06:38:52;10.55;;;2.70;;
20073;SDS011;10197;54.282;10.078;2023-08-08T06:41:19;10.30;;;2.55;;
20073;SDS011;10197;54.282;10.078;2023-08-08T06:43:46;8.50;;;2.95;;
20073;SDS011;10197;54.282;10.078;2023-08-08T06:46:12;12.73;;;3.05;;
20073;SDS011;10197;54.282;10.078;2023-08-08T06:48:41;9.60;;;3.15;;
20073;SDS011;10197;54.282;10.078;2023-08-08T06:51:10;10.40;;;3.03;;
20073;SDS011;10197;54.282;10.078;2023-08-08T06:53:36;8.50;;;2.95;;
20073;SDS011;10197;54.282;10.078;2023-08-08T06:56:03;8.63;;;2.17;;
20073;SDS011;10197;54.282;10.078;2023-08-08T06:58:31;8.88;;;3.17;;
20073;SDS011;10197;54.282;10.078;2023-08-08T07:00:58;9.20;;;2.50;;
20073;SDS011;10197;54.282;10.078;2023-08-08T07:03:25;12.38;;;2.95;;
20073;SDS011;10197;54.282;10.078;2023-08-08T07:05:51;10.60;;;2.92;;
20073;SDS011;10197;54.282;10.078;2023-08-08T07:08:19;12.45;;;2.88;;
20073;SDS011;10197;54.282;10.078;2023-08-08T07:10:47;9.85;;;3.20;;
20073;SDS011;10197;54.282;10.078;2023-08-08T07:13:13;9.60;;;3.00;;
20073;SDS011;10197;54.282;10.078;2023-08-08T07:15:40;12.40;;;3.70;;
20073;SDS011;10197;54.282;10.078;2023-08-08T07:18:07;23.92;;;3.20;;
20073;SDS011;10197;54.282;10.078;2023-08-08T07:20:34;8.57;;;3.33;;
20073;SDS011;10197;54.282;10.078;2023-08-08T07:23:01;10.38;;;3.08;;
20073;SDS011;10197;54.282;10.078;2023-08-08T07:25:29;11.95;;;3.47;;
20073;SDS011;10197;54.282;10.078;2023-08-08T07:27:56;15.57;;;3.58;;
20073;SDS011;10197;54.282;10.078;2023-08-08T07:30:23;7.07;;;3.17;;
20073;SDS011;10197;54.282;10.078;2023-08-08T07:32:51;13.75;;;4.72;;
20073;SDS011;10197;54.282;10.078;2023-08-08T07:35:19;13.95;;;3.22;;
20073;SDS011;10197;54.282;10.078;2023-08-08T07:37:46;13.13;;;2.55;;
20073;SDS011;10197;54.282;10.078;2023-08-08T07:40:13;8.30;;;2.88;;
20073;SDS011;10197;54.282;10.078;2023-08-08T07:42:43;9.07;;;3.17;;
20073;SDS011;10197;54.282;10.078;2023-08-08T07:45:10;7.45;;;2.88;;
20073;SDS011;10197;54.282;10.078;2023-08-08T07:47:37;8.70;;;2.60;;
20073;SDS011;10197;54.282;10.078;2023-08-08T07:50:04;12.30;;;3.17;;
20073;SDS011;10197;54.282;10.078;2023-08-08T07:52:33;7.55;;;3.00;;
20073;SDS011;10197;54.282;10.078;2023-08-08T07:55:00;7.72;;;3.03;;
20073;SDS011;10197;54.282;10.078;2023-08-08T07:57:27;10.68;;;3.00;;
20073;SDS011;10197;54.282;10.078;2023-08-08T07:59:56;10.15;;;2.97;;
20073;SDS011;10197;54.282;10.078;2023-08-08T08:02:22;10.80;;;2.90;;
20073;SDS011;10197;54.282;10.078;2023-08-08T08:04:49;7.03;;;2.40;;
20073;SDS011;10197;54.282;10.078;2023-08-08T08:07:16;11.40;;;2.97;;
20073;SDS011;10197;54.282;10.078;2023-08-08T08:09:43;13.95;;;3.50;;
20073;SDS011;10197;54.282;10.078;2023-08-08T08:12:10;11.75;;;3.15;;
20073;SDS011;10197;54.282;10.078;2023-08-08T08:14:38;10.43;;;3.25;;
20073;SDS011;10197;54.282;10.078;2023-08-08T08:17:06;6.43;;;2.47;;
20073;SDS011;10197;54.282;10.078;2023-08-08T08:19:33;9.13;;;2.72;;
20073;SDS011;10197;54.282;10.078;2023-08-08T08:22:01;7.00;;;2.65;;
20073;SDS011;10197;54.282;10.078;2023-08-08T08:24:28;8.15;;;2.67;;
20073;SDS011;10197;54.282;10.078;2023-08-08T08:26:55;14.25;;;2.88;;
20073;SDS011;10197;54.282;10.078;2023-08-08T08:29:21;8.93;;;2.63;;
20073;SDS011;10197;54.282;10.078;2023-08-08T08:31:48;6.22;;;2.50;;
20073;SDS011;10197;54.282;10.078;2023-08-08T08:34:16;9.23;;;3.10;;
20073;SDS011;10197;54.282;10.078;2023-08-08T08:36:43;9.73;;;2.78;;
20073;SDS011;10197;54.282;10.078;2023-08-08T08:39:10;9.55;;;2.80;;
20073;SDS011;10197;54.282;10.078;2023-08-08T08:41:37;5.78;;;2.10;;
20073;SDS011;10197;54.282;10.078;2023-08-08T08:44:04;7.38;;;2.58;;
20073;SDS011;10197;54.282;10.078;2023-08-08T08:46:32;7.82;;;2.30;;
20073;SDS011;10197;54.282;10.078;2023-08-08T08:48:58;7.07;;;2.50;;
20073;SDS011;10197;54.282;10.078;2023-08-08T08:51:28;6.93;;;2.50;;
20073;SDS011;10197;54.282;10.078;2023-08-08T08:53:55;10.60;;;2.92;;
20073;SDS011;10197;54.282;10.078;2023-08-08T08:56:23;8.05;;;2.38;;
20073;SDS011;10197;54.282;10.078;2023-08-08T08:58:50;8.80;;;2.10;;
20073;SDS011;10197;54.282;10.078;2023-08-08T09:01:17;5.95;;;2.35;;
20073;SDS011;10197;54.282;10.078;2023-08-08T09:03:44;8.50;;;2.50;;
20073;SDS011;10197;54.282;10.078;2023-08-08T09:06:11;9.55;;;2.30;;
20073;SDS011;10197;54.282;10.078;2023-08-08T09:08:40;9.40;;;2.30;;
20073;SDS011;10197;54.282;10.078;2023-08-08T09:11:07;13.73;;;2.78;;
20073;SDS011;10197;54.282;10.078;2023-08-08T09:13:36;14.20;;;3.13;;
20073;SDS011;10197;54.282;10.078;2023-08-08T09:16:04;9.30;;;2.42;;
20073;SDS011;10197;54.282;10.078;2023-08-08T09:18:31;8.57;;;2.35;;
20073;SDS011;10197;54.282;10.078;2023-08-08T09:20:59;7.85;;;2.33;;
20073;SDS011;10197;54.282;10.078;2023-08-08T09:23:26;7.75;;;2.13;;
20073;SDS011;10197;54.282;10.078;2023-08-08T09:25:54;13.75;;;2.83;;
20073;SDS011;10197;54.282;10.078;2023-08-08T09:28:21;6.68;;;2.15;;
20073;SDS011;10197;54.282;10.078;2023-08-08T09:30:49;8.82;;;2.10;;
20073;SDS011;10197;54.282;10.078;2023-08-08T09:33:17;5.78;;;2.42;;
20073;SDS011;10197;54.282;10.078;2023-08-08T09:35:44;4.50;;;1.65;;
20073;SDS011;10197;54.282;10.078;2023-08-08T09:38:11;6.82;;;2.22;;
20073;SDS011;10197;54.282;10.078;2023-08-08T09:40:38;6.43;;;1.90;;
20073;SDS011;10197;54.282;10.078;2023-08-08T09:43:07;4.28;;;1.83;;
20073;SDS011;10197;54.282;10.078;2023-08-08T09:45:37;5.00;;;1.95;;
20073;SDS011;10197;54.282;10.078;2023-08-08T09:48:07;3.58;;;2.03;;
20073;SDS011;10197;54.282;10.078;2023-08-08T09:50:33;6.40;;;1.80;;
20073;SDS011;10197;54.282;10.078;2023-08-08T09:53:01;7.70;;;2.30;;
20073;SDS011;10197;54.282;10.078;2023-08-08T09:55:29;7.30;;;2.10;;
20073;SDS011;10197;54.282;10.078;2023-08-08T09:57:57;7.53;;;2.40;;
20073;SDS011;10197;54.282;10.078;2023-08-08T10:00:26;5.72;;;2.30;;
20073;SDS011;10197;54.282;10.078;2023-08-08T10:02:55;5.22;;;1.83;;
20073;SDS011;10197;54.282;10.078;2023-08-08T10:05:22;5.35;;;2.25;;
20073;SDS011;10197;54.282;10.078;2023-08-08T10:07:50;9.70;;;2.22;;
20073;SDS011;10197;54.282;10.078;2023-08-08T10:10:17;6.50;;;2.50;;
20073;SDS011;10197;54.282;10.078;2023-08-08T10:12:46;7.70;;;2.40;;
20073;SDS011;10197;54.282;10.078;2023-08-08T10:15:14;10.48;;;2.63;;
20073;SDS011;10197;54.282;10.078;2023-08-08T10:17:43;7.55;;;2.55;;
20073;SDS011;10197;54.282;10.078;2023-08-08T10:20:10;6.22;;;2.17;;
20073;SDS011;10197;54.282;10.078;2023-08-08T10:22:41;6.82;;;2.00;;
20073;SDS011;10197;54.282;10.078;2023-08-08T10:25:09;6.22;;;2.08;;
20073;SDS011;10197;54.282;10.078;2023-08-08T10:27:44;8.38;;;2.08;;
20073;SDS011;10197;54.282;10.078;2023-08-08T10:30:10;7.65;;;1.83;;
20073;SDS011;10197;54.282;10.078;2023-08-08T10:32:40;6.00;;;2.03;;
20073;SDS011;10197;54.282;10.078;2023-08-08T10:35:09;10.05;;;2.42;;
20073;SDS011;10197;54.282;10.078;2023-08-08T10:37:37;6.05;;;2.20;;
20073;SDS011;10197;54.282;10.078;2023-08-08T10:40:05;12.43;;;2.80;;
20073;SDS011;10197;54.282;10.078;2023-08-08T10:42:36;5.50;;;2.22;;
20073;SDS011;10197;54.282;10.078;2023-08-08T10:45:09;3.92;;;1.92;;
20073;SDS011;10197;54.282;10.078;2023-08-08T10:47:37;8.35;;;2.47;;
20073;SDS011;10197;54.282;10.078;2023-08-08T10:50:05;6.65;;;1.92;;
20073;SDS011;10197;54.282;10.078;2023-08-08T10:52:37;8.80;;;1.92;;
20073;SDS011;10197;54.282;10.078;2023-08-08T10:55:05;11.38;;;2.47;;
20073;SDS011;10197;54.282;10.078;2023-08-08T10:57:32;5.95;;;2.20;;
20073;SDS011;10197;54.282;10.078;2023-08-08T11:02:44;6.88;;;1.92;;
20073;SDS011;10197;54.282;10.078;2023-08-08T11:05:11;4.30;;;1.92;;
20073;SDS011;10197;54.282;10.078;2023-08-08T11:07:40;5.82;;;2.03;;
20073;SDS011;10197;54.282;10.078;2023-08-08T11:10:08;4.60;;;2.05;;
20073;SDS011;10197;54.282;10.078;2023-08-08T11:12:35;3.63;;;1.83;;
20073;SDS011;10197;54.282;10.078;2023-08-08T11:15:02;7.50;;;2.33;;
20073;SDS011;10197;54.282;10.078;2023-08-08T11:17:30;5.60;;;2.03;;
20073;SDS011;10197;54.282;10.078;2023-08-08T11:19:57;5.40;;;2.10;;
20073;SDS011;10197;54.282;10.078;2023-08-08T11:22:24;4.20;;;1.90;;
20073;SDS011;10197;54.282;10.078;2023-08-08T11:24:52;5.15;;;1.80;;
20073;SDS011;10197;54.282;10.078;2023-08-08T11:27:23;2.33;;;1.58;;
20073;SDS011;10197;54.282;10.078;2023-08-08T11:29:50;3.38;;;1.23;;
20073;SDS011;10197;54.282;10.078;2023-08-08T11:32:17;5.43;;;2.60;;
20073;SDS011;10197;54.282;10.078;2023-08-08T11:34:45;2.17;;;1.30;;
20073;SDS011;10197;54.282;10.078;2023-08-08T11:37:12;2.38;;;1.42;;
20073;SDS011;10197;54.282;10.078;2023-08-08T11:39:40;2.00;;;1.30;;
20073;SDS011;10197;54.282;10.078;2023-08-08T11:42:09;4.72;;;1.60;;
20073;SDS011;10197;54.282;10.078;2023-08-08T11:44:36;4.38;;;1.60;;
20073;SDS011;10197;54.282;10.078;2023-08-08T11:47:03;4.40;;;1.75;;
20073;SDS011;10197;54.282;10.078;2023-08-08T11:49:30;6.22;;;1.90;;
20073;SDS011;10197;54.282;10.078;2023-08-08T11:51:56;2.60;;;1.50;;
20073;SDS011;10197;54.282;10.078;2023-08-08T11:54:26;3.63;;;1.65;;
20073;SDS011;10197;54.282;10.078;2023-08-08T11:56:53;3.95;;;1.40;;
20073;SDS011;10197;54.282;10.078;2023-08-08T11:59:21;4.03;;;1.48;;
20073;SDS011;10197;54.282;10.078;2023-08-08T12:01:48;4.53;;;1.20;;
20073;SDS011;10197;54.282;10.078;2023-08-08T12:04:15;3.30;;;1.25;;
20073;SDS011;10197;54.282;10.078;2023-08-08T12:06:42;8.73;;;1.60;;
20073;SDS011;10197;54.282;10.078;2023-08-08T12:09:10;4.63;;;1.60;;
20073;SDS011;10197;54.282;10.078;2023-08-08T12:11:38;4.90;;;1.40;;
20073;SDS011;10197;54.282;10.078;2023-08-08T12:14:07;2.92;;;1.33;;
20073;SDS011;10197;54.282;10.078;2023-08-08T12:16:37;4.20;;;1.60;;
20073;SDS011;10197;54.282;10.078;2023-08-08T12:19:04;2.00;;;1.10;;
20073;SDS011;10197;54.282;10.078;2023-08-08T12:21:34;3.72;;;1.45;;
20073;SDS011;10197;54.282;10.078;2023-08-08T12:24:00;3.50;;;1.27;;
20073;SDS011;10197;54.282;10.078;2023-08-08T12:26:27;3.05;;;1.33;;
20073;SDS011;10197;54.282;10.078;2023-08-08T12:28:54;3.10;;;1.23;;
20073;SDS011;10197;54.282;10.078;2023-08-08T12:31:21;2.95;;;1.38;;
20073;SDS011;10197;54.282;10.078;2023-08-08T12:33:49;3.20;;;1.35;;
20073;SDS011;10197;54.282;10.078;2023-08-08T12:36:16;4.63;;;1.60;;
20073;SDS011;10197;54.282;10.078;2023-08-08T12:38:42;8.50;;;1.80;;
20073;SDS011;10197;54.282;10.078;2023-08-08T12:41:10;4.75;;;1.40;;
20073;SDS011;10197;54.282;10.078;2023-08-08T12:43:37;1.98;;;1.33;;
20073;SDS011;10197;54.282;10.078;2023-08-08T12:46:05;5.57;;;1.35;;
20073;SDS011;10197;54.282;10.078;2023-08-08T12:48:31;4.18;;;1.83;;
20073;SDS011;10197;54.282;10.078;2023-08-08T12:51:00;6.30;;;1.63;;
20073;SDS011;10197;54.282;10.078;2023-08-08T12:53:26;4.55;;;1.60;;
20073;SDS011;10197;54.282;10.078;2023-08-08T12:55:53;7.38;;;1.60;;
20073;SDS011;10197;54.282;10.078;2023-08-08T12:58:20;4.80;;;1.60;;
20073;SDS011;10197;54.282;10.078;2023-08-08T13:00:46;3.92;;;1.60;;
20073;SDS011;10197;54.282;10.078;2023-08-08T13:03:14;7.53;;;2.22;;
20073;SDS011;10197;54.282;10.078;2023-08-08T13:05:40;10.23;;;2.28;;
20073;SDS011;10197;54.282;10.078;2023-08-08T13:08:09;14.65;;;2.72;;
20073;SDS011;10197;54.282;10.078;2023-08-08T13:10:38;7.78;;;2.15;;
20073;SDS011;10197;54.282;10.078;2023-08-08T13:13:05;6.60;;;1.85;;
20073;SDS011;10197;54.282;10.078;2023-08-08T13:15:32;4.93;;;1.33;;
20073;SDS011;10197;54.282;10.078;2023-08-08T13:17:59;3.83;;;1.40;;
20073;SDS011;10197;54.282;10.078;2023-08-08T13:20:26;4.32;;;1.75;;
20073;SDS011;10197;54.282;10.078;2023-08-08T13:22:52;6.70;;;1.85;;
20073;SDS011;10197;54.282;10.078;2023-08-08T13:25:20;4.18;;;1.60;;
20073;SDS011;10197;54.282;10.078;2023-08-08T13:27:47;5.07;;;2.10;;
20073;SDS011;10197;54.282;10.078;2023-08-08T13:30:14;5.18;;;1.90;;
20073;SDS011;10197;54.282;10.078;2023-08-08T13:32:41;5.75;;;1.70;;
20073;SDS011;10197;54.282;10.078;2023-08-08T13:35:09;4.88;;;2.08;;
20073;SDS011;10197;54.282;10.078;2023-08-08T13:37:36;7.80;;;1.83;;
20073;SDS011;10197;54.282;10.078;2023-08-08T13:40:03;6.80;;;2.30;;
20073;SDS011;10197;54.282;10.078;2023-08-08T13:42:31;6.20;;;2.50;;
20073;SDS011;10197;54.282;10.078;2023-08-08T13:44:58;5.90;;;2.10;;
20073;SDS011;10197;54.282;10.078;2023-08-08T13:47:25;7.32;;;2.50;;
20073;SDS011;10197;54.282;10.078;2023-08-08T13:49:51;6.25;;;2.40;;
20073;SDS011;10197;54.282;10.078;2023-08-08T13:52:18;6.10;;;2.47;;
20073;SDS011;10197;54.282;10.078;2023-08-08T13:54:45;6.10;;;2.33;;
20073;SDS011;10197;54.282;10.078;2023-08-08T13:57:12;5.72;;;2.65;;
20073;SDS011;10197;54.282;10.078;2023-08-08T13:59:40;8.23;;;2.67;;
20073;SDS011;10197;54.282;10.078;2023-08-08T14:02:06;6.38;;;2.30;;
20073;SDS011;10197;54.282;10.078;2023-08-08T14:04:33;9.43;;;2.90;;
20073;SDS011;10197;54.282;10.078;2023-08-08T14:07:00;5.85;;;2.00;;
20073;SDS011;10197;54.282;10.078;2023-08-08T14:09:27;7.55;;;2.22;;
20073;SDS011;10197;54.282;10.078;2023-08-08T14:11:53;7.18;;;2.40;;
20073;SDS011;10197;54.282;10.078;2023-08-08T14:14:20;8.85;;;2.15;;
20073;SDS011;10197;54.282;10.078;2023-08-08T14:16:48;7.40;;;2.08;;
20073;SDS011;10197;54.282;10.078;2023-08-08T14:19:15;6.15;;;2.28;;
20073;SDS011;10197;54.282;10.078;2023-08-08T14:21:42;8.07;;;2.47;;
20073;SDS011;10197;54.282;10.078;2023-08-08T14:24:09;11.90;;;2.42;;
20073;SDS011;10197;54.282;10.078;2023-08-08T14:26:36;5.82;;;2.63;;
20073;SDS011;10197;54.282;10.078;2023-08-08T14:29:03;7.75;;;2.30;;
20073;SDS011;10197;54.282;10.078;2023-08-08T14:31:30;6.80;;;2.30;;
20073;SDS011;10197;54.282;10.078;2023-08-08T14:33:58;4.03;;;1.83;;